sensor_id;sensor_type;location;lat;lon;timestamp;P1;durP1;ratioP1;P2;durP2;ratioP2
37231;SDS011;23125;48.156;15.954;2024-02-23T00:00:42;12.43;;;7.93;;
37231;SDS011;23125;48.156;15.954;2024-02-23T00:03:08;12.65;;;8.50;;
37231;SDS011;23125;48.156;15.954;2024-02-23T00:05:35;13.32;;;8.38;;
37231;SDS011;23125;48.156;15.954;2024-02-23T00:08:01;17.30;;;10.18;;
37231;SDS011;23125;48.156;15.954;2024-02-23T00:10:27;15.05;;;9.95;;
37231;SDS011;23125;48.156;15.954;2024-02-23T00:12:53;12.38;;;9.00;;
37231;SDS011;23125;48.156;15.954;2024-02-23T00:15:19;13.35;;;7.78;;
37231;SDS011;23125;48.156;15.954;2024-02-23T00:17:45;12.27;;;7.90;;
37231;SDS011;23125;48.156;15.954;2024-02-23T00:20:11;13.38;;;8.77;;
37231;SDS011;23125;48.156;15.954;2024-02-23T00:22:37;11.43;;;7.68;;
37231;SDS011;23125;48.156;15.954;2024-02-23T00:25:04;13.13;;;7.45;;
37231;SDS011;23125;48.156;15.954;2024-02-23T00:27:30;12.02;;;7.57;;
37231;SDS011;23125;48.156;15.954;2024-02-23T00:29:56;10.05;;;6.93;;
37231;SDS011;23125;48.156;15.954;2024-02-23T00:32:22;9.68;;;7.38;;
37231;SDS011;23125;48.156;15.954;2024-02-23T00:34:48;10.20;;;7.25;;
37231;SDS011;23125;48.156;15.954;2024-02-23T00:37:14;11.77;;;7.10;;
37231;SDS011;23125;48.156;15.954;2024-02-23T00:39:40;12.50;;;7.28;;
37231;SDS011;23125;48.156;15.954;2024-02-23T00:42:06;11.27;;;7.28;;
37231;SDS011;23125;48.156;15.954;2024-02-23T00:44:33;10.00;;;6.97;;
37231;SDS011;23125;48.156;15.954;2024-02-23T00:46:58;10.15;;;7.38;;
37231;SDS011;23125;48.156;15.954;2024-02-23T00:49:27;10.60;;;6.88;;
37231;SDS011;23125;48.156;15.954;2024-02-23T00:51:54;12.52;;;7.20;;
37231;SDS011;23125;48.156;15.954;2024-02-23T00:54:20;10.02;;;7.53;;
37231;SDS011;23125;48.156;15.954;2024-02-23T00:56:46;11.75;;;8.00;;
37231;SDS011;23125;48.156;15.954;2024-02-23T00:59:12;12.23;;;7.20;;
37231;SDS011;23125;48.156;15.954;2024-02-23T01:01:38;10.10;;;6.55;;
37231;SDS011;23125;48.156;15.954;2024-02-23T01:04:04;9.52;;;6.40;;
37231;SDS011;23125;48.156;15.954;2024-02-23T01:06:30;10.05;;;6.68;;
37231;SDS011;23125;48.156;15.954;2024-02-23T01:08:56;11.05;;;7.18;;
37231;SDS011;23125;48.156;15.954;2024-02-23T01:11:22;10.35;;;6.68;;
37231;SDS011;23125;48.156;15.954;2024-02-23T01:13:47;10.27;;;7.03;;
37231;SDS011;23125;48.156;15.954;2024-02-23T01:16:13;11.18;;;6.53;;
37231;SDS011;23125;48.156;15.954;2024-02-23T01:18:40;10.52;;;7.40;;
37231;SDS011;23125;48.156;15.954;2024-02-23T01:21:05;11.73;;;8.05;;
37231;SDS011;23125;48.156;15.954;2024-02-23T01:23:31;14.43;;;8.65;;
37231;SDS011;23125;48.156;15.954;2024-02-23T01:25:57;11.27;;;7.88;;
37231;SDS011;23125;48.156;15.954;2024-02-23T01:28:25;9.82;;;7.30;;
37231;SDS011;23125;48.156;15.954;2024-02-23T01:30:50;12.18;;;7.43;;
37231;SDS011;23125;48.156;15.954;2024-02-23T01:33:16;11.40;;;7.65;;
37231;SDS011;23125;48.156;15.954;2024-02-23T01:35:42;12.00;;;7.50;;
37231;SDS011;23125;48.156;15.954;2024-02-23T01:38:08;9.50;;;6.97;;
37231;SDS011;23125;48.156;15.954;2024-02-23T01:40:34;11.95;;;6.90;;
37231;SDS011;23125;48.156;15.954;2024-02-23T01:43:03;13.68;;;7.55;;
37231;SDS011;23125;48.156;15.954;2024-02-23T01:45:30;11.18;;;7.22;;
37231;SDS011;23125;48.156;15.954;2024-02-23T01:47:57;9.90;;;6.75;;
37231;SDS011;23125;48.156;15.954;2024-02-23T01:50:24;12.32;;;7.57;;
37231;SDS011;23125;48.156;15.954;2024-02-23T01:52:52;9.90;;;6.60;;
37231;SDS011;23125;48.156;15.954;2024-02-23T01:55:21;13.82;;;7.47;;
37231;SDS011;23125;48.156;15.954;2024-02-23T02:00:15;11.13;;;7.30;;
37231;SDS011;23125;48.156;15.954;2024-02-23T02:02:43;9.63;;;7.30;;
37231;SDS011;23125;48.156;15.954;2024-02-23T02:05:10;10.38;;;7.20;;
37231;SDS011;23125;48.156;15.954;2024-02-23T02:07:37;9.23;;;6.60;;
37231;SDS011;23125;48.156;15.954;2024-02-23T02:10:06;8.85;;;6.40;;
37231;SDS011;23125;48.156;15.954;2024-02-23T02:12:33;9.60;;;6.95;;
37231;SDS011;23125;48.156;15.954;2024-02-23T02:14:59;10.60;;;7.13;;
37231;SDS011;23125;48.156;15.954;2024-02-23T02:17:29;10.00;;;6.93;;
37231;SDS011;23125;48.156;15.954;2024-02-23T02:19:55;12.00;;;7.18;;
37231;SDS011;23125;48.156;15.954;2024-02-23T02:22:24;10.63;;;7.53;;
37231;SDS011;23125;48.156;15.954;2024-02-23T02:24:50;9.98;;;7.22;;
37231;SDS011;23125;48.156;15.954;2024-02-23T02:27:15;12.45;;;7.20;;
37231;SDS011;23125;48.156;15.954;2024-02-23T02:29:41;9.52;;;6.30;;
37231;SDS011;23125;48.156;15.954;2024-02-23T02:32:08;10.30;;;6.93;;
37231;SDS011;23125;48.156;15.954;2024-02-23T02:34:34;9.25;;;6.85;;
37231;SDS011;23125;48.156;15.954;2024-02-23T02:37:00;9.40;;;6.53;;
37231;SDS011;23125;48.156;15.954;2024-02-23T02:39:26;7.78;;;5.88;;
37231;SDS011;23125;48.156;15.954;2024-02-23T02:41:53;9.23;;;6.85;;
37231;SDS011;23125;48.156;15.954;2024-02-23T02:44:19;10.88;;;7.55;;
37231;SDS011;23125;48.156;15.954;2024-02-23T02:46:45;10.63;;;7.15;;
37231;SDS011;23125;48.156;15.954;2024-02-23T02:49:11;11.48;;;8.35;;
37231;SDS011;23125;48.156;15.954;2024-02-23T02:51:37;12.00;;;8.05;;
37231;SDS011;23125;48.156;15.954;2024-02-23T02:54:03;13.70;;;8.50;;
37231;SDS011;23125;48.156;15.954;2024-02-23T02:56:28;11.35;;;7.57;;
37231;SDS011;23125;48.156;15.954;2024-02-23T02:58:55;11.10;;;7.97;;
37231;SDS011;23125;48.156;15.954;2024-02-23T03:01:21;12.70;;;8.30;;
37231;SDS011;23125;48.156;15.954;2024-02-23T03:03:47;12.68;;;8.15;;
37231;SDS011;23125;48.156;15.954;2024-02-23T03:06:13;13.68;;;9.15;;
37231;SDS011;23125;48.156;15.954;2024-02-23T03:08:38;13.55;;;8.98;;
37231;SDS011;23125;48.156;15.954;2024-02-23T03:11:07;13.38;;;9.18;;
37231;SDS011;23125;48.156;15.954;2024-02-23T03:13:33;16.63;;;9.95;;
37231;SDS011;23125;48.156;15.954;2024-02-23T03:15:59;15.98;;;10.45;;
37231;SDS011;23125;48.156;15.954;2024-02-23T03:18:25;15.63;;;10.27;;
37231;SDS011;23125;48.156;15.954;2024-02-23T03:20:53;17.27;;;10.57;;
37231;SDS011;23125;48.156;15.954;2024-02-23T03:23:20;15.13;;;10.52;;
37231;SDS011;23125;48.156;15.954;2024-02-23T03:25:46;15.73;;;11.35;;
37231;SDS011;23125;48.156;15.954;2024-02-23T03:28:12;15.20;;;10.32;;
37231;SDS011;23125;48.156;15.954;2024-02-23T03:30:37;17.90;;;11.07;;
37231;SDS011;23125;48.156;15.954;2024-02-23T03:33:03;16.25;;;9.98;;
37231;SDS011;23125;48.156;15.954;2024-02-23T03:35:29;14.45;;;9.82;;
37231;SDS011;23125;48.156;15.954;2024-02-23T03:37:55;14.00;;;10.02;;
37231;SDS011;23125;48.156;15.954;2024-02-23T03:40:21;22.30;;;13.68;;
37231;SDS011;23125;48.156;15.954;2024-02-23T03:42:47;18.67;;;13.23;;
37231;SDS011;23125;48.156;15.954;2024-02-23T03:45:13;18.98;;;11.98;;
37231;SDS011;23125;48.156;15.954;2024-02-23T03:47:38;21.77;;;14.15;;
37231;SDS011;23125;48.156;15.954;2024-02-23T03:50:06;19.80;;;12.95;;
37231;SDS011;23125;48.156;15.954;2024-02-23T03:52:33;18.10;;;13.05;;
37231;SDS011;23125;48.156;15.954;2024-02-23T03:54:59;28.77;;;15.43;;
37231;SDS011;23125;48.156;15.954;2024-02-23T03:57:24;24.58;;;12.95;;
37231;SDS011;23125;48.156;15.954;2024-02-23T03:59:51;15.13;;;8.98;;
37231;SDS011;23125;48.156;15.954;2024-02-23T04:02:21;7.97;;;5.65;;
37231;SDS011;23125;48.156;15.954;2024-02-23T04:04:47;26.58;;;11.00;;
37231;SDS011;23125;48.156;15.954;2024-02-23T04:07:14;12.57;;;7.32;;
37231;SDS011;23125;48.156;15.954;2024-02-23T04:09:40;4.25;;;3.30;;
37231;SDS011;23125;48.156;15.954;2024-02-23T04:12:06;5.85;;;3.88;;
37231;SDS011;23125;48.156;15.954;2024-02-23T04:14:33;4.78;;;2.67;;
37231;SDS011;23125;48.156;15.954;2024-02-23T04:17:04;4.03;;;2.65;;
37231;SDS011;23125;48.156;15.954;2024-02-23T04:19:30;3.47;;;2.10;;
37231;SDS011;23125;48.156;15.954;2024-02-23T04:21:56;3.88;;;1.88;;
37231;SDS011;23125;48.156;15.954;2024-02-23T04:24:22;4.68;;;2.65;;
37231;SDS011;23125;48.156;15.954;2024-02-23T04:26:48;6.85;;;2.70;;
37231;SDS011;23125;48.156;15.954;2024-02-23T04:29:14;3.20;;;1.90;;
37231;SDS011;23125;48.156;15.954;2024-02-23T04:31:39;8.43;;;3.35;;
37231;SDS011;23125;48.156;15.954;2024-02-23T04:34:05;4.07;;;2.42;;
37231;SDS011;23125;48.156;15.954;2024-02-23T04:36:31;2.78;;;1.40;;
37231;SDS011;23125;48.156;15.954;2024-02-23T04:38:57;2.13;;;1.52;;
37231;SDS011;23125;48.156;15.954;2024-02-23T04:41:23;2.17;;;1.00;;
37231;SDS011;23125;48.156;15.954;2024-02-23T04:43:49;2.00;;;0.90;;
37231;SDS011;23125;48.156;15.954;2024-02-23T04:46:16;1.85;;;1.00;;
37231;SDS011;23125;48.156;15.954;2024-02-23T04:48:41;12.75;;;4.65;;
37231;SDS011;23125;48.156;15.954;2024-02-23T04:51:08;7.95;;;3.08;;
37231;SDS011;23125;48.156;15.954;2024-02-23T04:53:36;3.75;;;1.88;;
37231;SDS011;23125;48.156;15.954;2024-02-23T04:56:04;5.43;;;2.50;;
37231;SDS011;23125;48.156;15.954;2024-02-23T04:58:30;1.63;;;0.93;;
37231;SDS011;23125;48.156;15.954;2024-02-23T05:00:56;1.83;;;1.20;;
37231;SDS011;23125;48.156;15.954;2024-02-23T05:03:22;0.90;;;0.40;;
37231;SDS011;23125;48.156;15.954;2024-02-23T05:05:48;2.33;;;0.55;;
37231;SDS011;23125;48.156;15.954;2024-02-23T05:08:19;2.40;;;1.20;;
37231;SDS011;23125;48.156;15.954;2024-02-23T05:10:46;2.03;;;0.88;;
37231;SDS011;23125;48.156;15.954;2024-02-23T05:13:13;2.83;;;0.95;;
37231;SDS011;23125;48.156;15.954;2024-02-23T05:15:39;2.67;;;1.30;;
37231;SDS011;23125;48.156;15.954;2024-02-23T05:18:05;1.80;;;0.65;;
37231;SDS011;23125;48.156;15.954;2024-02-23T05:20:31;1.75;;;0.45;;
37231;SDS011;23125;48.156;15.954;2024-02-23T05:22:57;0.70;;;0.30;;
37231;SDS011;23125;48.156;15.954;2024-02-23T05:25:23;2.20;;;0.85;;
37231;SDS011;23125;48.156;15.954;2024-02-23T05:27:51;3.28;;;1.33;;
37231;SDS011;23125;48.156;15.954;2024-02-23T05:30:17;0.77;;;0.50;;
37231;SDS011;23125;48.156;15.954;2024-02-23T05:32:43;1.85;;;1.20;;
37231;SDS011;23125;48.156;15.954;2024-02-23T05:35:09;2.67;;;1.40;;
37231;SDS011;23125;48.156;15.954;2024-02-23T05:37:35;5.45;;;2.10;;
37231;SDS011;23125;48.156;15.954;2024-02-23T05:40:02;2.30;;;1.20;;
37231;SDS011;23125;48.156;15.954;2024-02-23T05:42:32;1.25;;;0.70;;
37231;SDS011;23125;48.156;15.954;2024-02-23T05:44:58;0.50;;;0.45;;
37231;SDS011;23125;48.156;15.954;2024-02-23T05:47:24;1.08;;;0.30;;
37231;SDS011;23125;48.156;15.954;2024-02-23T05:49:50;0.80;;;0.22;;
37231;SDS011;23125;48.156;15.954;2024-02-23T05:52:16;0.93;;;0.40;;
37231;SDS011;23125;48.156;15.954;2024-02-23T05:54:42;0.40;;;0.17;;
37231;SDS011;23125;48.156;15.954;2024-02-23T05:57:08;1.98;;;0.73;;
37231;SDS011;23125;48.156;15.954;2024-02-23T05:59:34;1.83;;;0.90;;
37231;SDS011;23125;48.156;15.954;2024-02-23T06:02:00;3.35;;;0.40;;
37231;SDS011;23125;48.156;15.954;2024-02-23T06:04:26;0.65;;;0.28;;
37231;SDS011;23125;48.156;15.954;2024-02-23T06:06:52;1.02;;;0.10;;
37231;SDS011;23125;48.156;15.954;2024-02-23T06:09:18;0.40;;;0.20;;
37231;SDS011;23125;48.156;15.954;2024-02-23T06:11:44;1.38;;;0.45;;
37231;SDS011;23125;48.156;15.954;2024-02-23T06:14:10;1.92;;;0.82;;
37231;SDS011;23125;48.156;15.954;2024-02-23T06:16:36;1.40;;;0.28;;
37231;SDS011;23125;48.156;15.954;2024-02-23T06:19:02;5.57;;;1.83;;
37231;SDS011;23125;48.156;15.954;2024-02-23T06:21:29;5.80;;;2.35;;
37231;SDS011;23125;48.156;15.954;2024-02-23T06:23:55;6.90;;;1.65;;
37231;SDS011;23125;48.156;15.954;2024-02-23T06:26:21;5.53;;;2.00;;
37231;SDS011;23125;48.156;15.954;2024-02-23T06:28:47;3.17;;;0.30;;
37231;SDS011;23125;48.156;15.954;2024-02-23T06:31:14;0.20;;;0.10;;
37231;SDS011;23125;48.156;15.954;2024-02-23T06:33:40;1.95;;;0.70;;
37231;SDS011;23125;48.156;15.954;2024-02-23T06:36:09;3.38;;;1.55;;
37231;SDS011;23125;48.156;15.954;2024-02-23T06:38:35;4.15;;;1.42;;
37231;SDS011;23125;48.156;15.954;2024-02-23T06:41:01;3.42;;;1.20;;
37231;SDS011;23125;48.156;15.954;2024-02-23T06:43:27;4.75;;;1.52;;
37231;SDS011;23125;48.156;15.954;2024-02-23T06:45:53;1.45;;;0.45;;
37231;SDS011;23125;48.156;15.954;2024-02-23T06:48:18;0.88;;;0.35;;
37231;SDS011;23125;48.156;15.954;2024-02-23T06:50:44;1.42;;;0.50;;
37231;SDS011;23125;48.156;15.954;2024-02-23T06:53:11;3.28;;;0.85;;
37231;SDS011;23125;48.156;15.954;2024-02-23T06:55:37;3.20;;;0.60;;
37231;SDS011;23125;48.156;15.954;2024-02-23T06:58:02;3.20;;;0.73;;
37231;SDS011;23125;48.156;15.954;2024-02-23T07:02:58;2.65;;;0.85;;
37231;SDS011;23125;48.156;15.954;2024-02-23T07:05:24;5.80;;;2.35;;
37231;SDS011;23125;48.156;15.954;2024-02-23T07:07:51;4.82;;;1.80;;
37231;SDS011;23125;48.156;15.954;2024-02-23T07:10:17;11.75;;;2.50;;
37231;SDS011;23125;48.156;15.954;2024-02-23T07:12:43;28.20;;;7.35;;
37231;SDS011;23125;48.156;15.954;2024-02-23T07:15:10;21.88;;;6.70;;
37231;SDS011;23125;48.156;15.954;2024-02-23T07:17:36;9.95;;;3.50;;
37231;SDS011;23125;48.156;15.954;2024-02-23T07:20:01;0.82;;;0.43;;
37231;SDS011;23125;48.156;15.954;2024-02-23T07:22:33;1.30;;;0.35;;
37231;SDS011;23125;48.156;15.954;2024-02-23T07:24:59;1.20;;;0.30;;
37231;SDS011;23125;48.156;15.954;2024-02-23T07:27:28;0.85;;;0.35;;
37231;SDS011;23125;48.156;15.954;2024-02-23T07:29:55;1.10;;;0.50;;
37231;SDS011;23125;48.156;15.954;2024-02-23T07:32:21;1.63;;;0.32;;
37231;SDS011;23125;48.156;15.954;2024-02-23T07:34:47;1.88;;;0.80;;
37231;SDS011;23125;48.156;15.954;2024-02-23T07:37:14;2.53;;;0.70;;
37231;SDS011;23125;48.156;15.954;2024-02-23T07:39:40;4.90;;;1.20;;
37231;SDS011;23125;48.156;15.954;2024-02-23T07:42:06;1.70;;;0.70;;
37231;SDS011;23125;48.156;15.954;2024-02-23T07:44:34;9.00;;;3.97;;
37231;SDS011;23125;48.156;15.954;2024-02-23T07:47:00;10.82;;;4.32;;
37231;SDS011;23125;48.156;15.954;2024-02-23T07:49:26;10.13;;;4.13;;
37231;SDS011;23125;48.156;15.954;2024-02-23T07:51:53;6.22;;;1.60;;
37231;SDS011;23125;48.156;15.954;2024-02-23T07:54:20;6.85;;;2.78;;
37231;SDS011;23125;48.156;15.954;2024-02-23T07:56:46;11.00;;;4.35;;
37231;SDS011;23125;48.156;15.954;2024-02-23T07:59:12;14.23;;;6.22;;
37231;SDS011;23125;48.156;15.954;2024-02-23T08:01:38;7.47;;;3.33;;
37231;SDS011;23125;48.156;15.954;2024-02-23T08:04:05;4.53;;;1.85;;
37231;SDS011;23125;48.156;15.954;2024-02-23T08:06:31;5.18;;;2.28;;
37231;SDS011;23125;48.156;15.954;2024-02-23T08:08:58;10.45;;;4.50;;
37231;SDS011;23125;48.156;15.954;2024-02-23T08:11:23;7.03;;;3.30;;
37231;SDS011;23125;48.156;15.954;2024-02-23T08:13:50;1.92;;;0.52;;
37231;SDS011;23125;48.156;15.954;2024-02-23T08:16:16;0.90;;;0.30;;
37231;SDS011;23125;48.156;15.954;2024-02-23T08:18:42;0.75;;;0.30;;
37231;SDS011;23125;48.156;15.954;2024-02-23T08:21:09;0.65;;;0.10;;
37231;SDS011;23125;48.156;15.954;2024-02-23T08:23:36;0.75;;;0.15;;
37231;SDS011;23125;48.156;15.954;2024-02-23T08:26:02;0.35;;;0.10;;
37231;SDS011;23125;48.156;15.954;2024-02-23T08:28:28;0.95;;;0.32;;
37231;SDS011;23125;48.156;15.954;2024-02-23T08:30:54;1.55;;;0.38;;
37231;SDS011;23125;48.156;15.954;2024-02-23T08:33:20;1.60;;;0.32;;
37231;SDS011;23125;48.156;15.954;2024-02-23T08:35:46;0.88;;;0.40;;
37231;SDS011;23125;48.156;15.954;2024-02-23T08:38:13;0.50;;;0.30;;
37231;SDS011;23125;48.156;15.954;2024-02-23T08:40:39;1.10;;;0.30;;
37231;SDS011;23125;48.156;15.954;2024-02-23T08:43:07;0.77;;;0.30;;
37231;SDS011;23125;48.156;15.954;2024-02-23T08:45:33;7.60;;;3.25;;
37231;SDS011;23125;48.156;15.954;2024-02-23T08:47:59;1.80;;;0.80;;
37231;SDS011;23125;48.156;15.954;2024-02-23T08:50:24;2.65;;;1.58;;
37231;SDS011;23125;48.156;15.954;2024-02-23T08:52:50;1.10;;;0.95;;
37231;SDS011;23125;48.156;15.954;2024-02-23T08:55:16;1.48;;;1.02;;
37231;SDS011;23125;48.156;15.954;2024-02-23T08:57:43;0.80;;;0.55;;
37231;SDS011;23125;48.156;15.954;2024-02-23T09:00:09;0.47;;;0.40;;
37231;SDS011;23125;48.156;15.954;2024-02-23T09:02:36;0.80;;;0.55;;
37231;SDS011;23125;48.156;15.954;2024-02-23T09:05:03;1.20;;;0.45;;
37231;SDS011;23125;48.156;15.954;2024-02-23T09:07:30;0.57;;;0.40;;
37231;SDS011;23125;48.156;15.954;2024-02-23T09:09:56;0.60;;;0.52;;
37231;SDS011;23125;48.156;15.954;2024-02-23T09:12:22;0.88;;;0.60;;
37231;SDS011;23125;48.156;15.954;2024-02-23T09:14:48;1.23;;;0.40;;
37231;SDS011;23125;48.156;15.954;2024-02-23T09:17:14;1.20;;;0.30;;
37231;SDS011;23125;48.156;15.954;2024-02-23T09:19:40;0.60;;;0.40;;
37231;SDS011;23125;48.156;15.954;2024-02-23T09:22:06;0.60;;;0.30;;
37231;SDS011;23125;48.156;15.954;2024-02-23T09:24:32;0.80;;;0.57;;
37231;SDS011;23125;48.156;15.954;2024-02-23T09:26:58;0.50;;;0.30;;
37231;SDS011;23125;48.156;15.954;2024-02-23T09:29:24;3.35;;;0.70;;
37231;SDS011;23125;48.156;15.954;2024-02-23T09:31:50;1.35;;;0.75;;
37231;SDS011;23125;48.156;15.954;2024-02-23T09:34:18;1.45;;;0.85;;
37231;SDS011;23125;48.156;15.954;2024-02-23T09:36:44;1.80;;;0.80;;
37231;SDS011;23125;48.156;15.954;2024-02-23T09:39:09;2.63;;;1.02;;
37231;SDS011;23125;48.156;15.954;2024-02-23T09:41:35;2.47;;;0.90;;
37231;SDS011;23125;48.156;15.954;2024-02-23T09:44:04;3.28;;;2.17;;
37231;SDS011;23125;48.156;15.954;2024-02-23T09:46:33;4.73;;;2.47;;
37231;SDS011;23125;48.156;15.954;2024-02-23T09:49:01;2.22;;;1.13;;
37231;SDS011;23125;48.156;15.954;2024-02-23T09:51:28;3.80;;;1.00;;
37231;SDS011;23125;48.156;15.954;2024-02-23T09:53:56;1.02;;;0.68;;
37231;SDS011;23125;48.156;15.954;2024-02-23T09:56:24;3.60;;;1.40;;
37231;SDS011;23125;48.156;15.954;2024-02-23T09:58:55;3.55;;;1.77;;
37231;SDS011;23125;48.156;15.954;2024-02-23T10:01:29;3.33;;;1.73;;
37231;SDS011;23125;48.156;15.954;2024-02-23T10:03:59;2.00;;;1.20;;
37231;SDS011;23125;48.156;15.954;2024-02-23T10:06:27;1.60;;;1.00;;
37231;SDS011;23125;48.156;15.954;2024-02-23T10:08:53;3.00;;;0.90;;
37231;SDS011;23125;48.156;15.954;2024-02-23T10:11:23;2.65;;;1.55;;
37231;SDS011;23125;48.156;15.954;2024-02-23T10:13:50;2.75;;;2.25;;
37231;SDS011;23125;48.156;15.954;2024-02-23T10:16:17;1.88;;;1.20;;
37231;SDS011;23125;48.156;15.954;2024-02-23T10:18:47;1.40;;;0.47;;
37231;SDS011;23125;48.156;15.954;2024-02-23T10:21:17;2.00;;;0.65;;
37231;SDS011;23125;48.156;15.954;2024-02-23T10:23:46;1.17;;;0.32;;
37231;SDS011;23125;48.156;15.954;2024-02-23T10:26:13;0.88;;;0.40;;
37231;SDS011;23125;48.156;15.954;2024-02-23T10:28:45;0.50;;;0.20;;
37231;SDS011;23125;48.156;15.954;2024-02-23T10:31:16;0.60;;;0.30;;
37231;SDS011;23125;48.156;15.954;2024-02-23T10:33:44;0.88;;;0.43;;
37231;SDS011;23125;48.156;15.954;2024-02-23T10:36:12;0.88;;;0.47;;
37231;SDS011;23125;48.156;15.954;2024-02-23T10:38:43;0.30;;;0.30;;
37231;SDS011;23125;48.156;15.954;2024-02-23T10:41:14;0.60;;;0.22;;
37231;SDS011;23125;48.156;15.954;2024-02-23T10:43:47;0.40;;;0.20;;
37231;SDS011;23125;48.156;15.954;2024-02-23T10:46:14;0.50;;;0.20;;
37231;SDS011;23125;48.156;15.954;2024-02-23T10:48:41;0.20;;;0.20;;
37231;SDS011;23125;48.156;15.954;2024-02-23T10:51:08;1.63;;;0.20;;
37231;SDS011;23125;48.156;15.954;2024-02-23T10:53:39;0.40;;;0.20;;
37231;SDS011;23125;48.156;15.954;2024-02-23T10:56:06;0.45;;;0.20;;
37231;SDS011;23125;48.156;15.954;2024-02-23T10:58:33;0.20;;;0.10;;
37231;SDS011;23125;48.156;15.954;2024-02-23T11:01:00;0.70;;;0.08;;
37231;SDS011;23125;48.156;15.954;2024-02-23T11:03:28;0.20;;;0.10;;
37231;SDS011;23125;48.156;15.954;2024-02-23T11:06:01;0.40;;;0.10;;
37231;SDS011;23125;48.156;15.954;2024-02-23T11:08:30;0.82;;;0.10;;
37231;SDS011;23125;48.156;15.954;2024-02-23T11:11:06;1.65;;;0.20;;
37231;SDS011;23125;48.156;15.954;2024-02-23T11:13:34;1.88;;;0.90;;
37231;SDS011;23125;48.156;15.954;2024-02-23T11:16:04;1.40;;;0.60;;
37231;SDS011;23125;48.156;15.954;2024-02-23T11:18:31;9.32;;;3.70;;
37231;SDS011;23125;48.156;15.954;2024-02-23T11:21:00;8.98;;;3.08;;
37231;SDS011;23125;48.156;15.954;2024-02-23T11:23:42;1.92;;;1.10;;
37231;SDS011;23125;48.156;15.954;2024-02-23T11:26:17;1.00;;;0.52;;
37231;SDS011;23125;48.156;15.954;2024-02-23T11:31:12;1.15;;;0.60;;
37231;SDS011;23125;48.156;15.954;2024-02-23T11:33:47;2.47;;;0.70;;
37231;SDS011;23125;48.156;15.954;2024-02-23T11:36:24;2.60;;;1.58;;
37231;SDS011;23125;48.156;15.954;2024-02-23T11:39:00;4.30;;;1.90;;
37231;SDS011;23125;48.156;15.954;2024-02-23T11:41:27;3.47;;;2.13;;
37231;SDS011;23125;48.156;15.954;2024-02-23T11:43:54;3.17;;;1.23;;
37231;SDS011;23125;48.156;15.954;2024-02-23T11:46:21;3.83;;;1.98;;
37231;SDS011;23125;48.156;15.954;2024-02-23T11:48:48;3.53;;;1.45;;
37231;SDS011;23125;48.156;15.954;2024-02-23T11:51:25;2.13;;;1.50;;
37231;SDS011;23125;48.156;15.954;2024-02-23T11:53:55;1.40;;;0.80;;
37231;SDS011;23125;48.156;15.954;2024-02-23T11:56:25;1.25;;;0.60;;
37231;SDS011;23125;48.156;15.954;2024-02-23T11:58:53;2.42;;;0.73;;
37231;SDS011;23125;48.156;15.954;2024-02-23T12:01:20;0.63;;;0.40;;
37231;SDS011;23125;48.156;15.954;2024-02-23T12:03:47;1.55;;;0.60;;
37231;SDS011;23125;48.156;15.954;2024-02-23T12:06:14;2.83;;;0.80;;
37231;SDS011;23125;48.156;15.954;2024-02-23T12:08:43;1.20;;;0.68;;
37231;SDS011;23125;48.156;15.954;2024-02-23T12:11:11;3.38;;;0.60;;
37231;SDS011;23125;48.156;15.954;2024-02-23T12:13:39;2.85;;;0.68;;
37231;SDS011;23125;48.156;15.954;2024-02-23T12:16:07;1.45;;;0.68;;
37231;SDS011;23125;48.156;15.954;2024-02-23T12:18:34;2.20;;;0.98;;
37231;SDS011;23125;48.156;15.954;2024-02-23T12:21:04;2.80;;;1.13;;
37231;SDS011;23125;48.156;15.954;2024-02-23T12:23:39;3.90;;;1.25;;
37231;SDS011;23125;48.156;15.954;2024-02-23T12:26:09;1.85;;;0.90;;
37231;SDS011;23125;48.156;15.954;2024-02-23T12:28:36;4.82;;;1.00;;
37231;SDS011;23125;48.156;15.954;2024-02-23T12:31:02;2.03;;;0.55;;
37231;SDS011;23125;48.156;15.954;2024-02-23T12:33:31;1.15;;;0.50;;
37231;SDS011;23125;48.156;15.954;2024-02-23T12:36:01;1.67;;;0.45;;
37231;SDS011;23125;48.156;15.954;2024-02-23T12:38:28;0.77;;;0.40;;
37231;SDS011;23125;48.156;15.954;2024-02-23T12:40:54;1.52;;;0.50;;
37231;SDS011;23125;48.156;15.954;2024-02-23T12:43:20;0.95;;;0.30;;
37231;SDS011;23125;48.156;15.954;2024-02-23T12:45:49;2.63;;;0.80;;
37231;SDS011;23125;48.156;15.954;2024-02-23T12:48:16;3.08;;;0.85;;
37231;SDS011;23125;48.156;15.954;2024-02-23T12:50:43;3.42;;;1.17;;
37231;SDS011;23125;48.156;15.954;2024-02-23T12:56:08;1.77;;;0.50;;
37231;SDS011;23125;48.156;15.954;2024-02-23T12:58:43;2.92;;;0.90;;
37231;SDS011;23125;48.156;15.954;2024-02-23T13:01:10;4.72;;;1.33;;
37231;SDS011;23125;48.156;15.954;2024-02-23T13:03:36;4.15;;;1.15;;
37231;SDS011;23125;48.156;15.954;2024-02-23T13:06:03;1.13;;;0.52;;
37231;SDS011;23125;48.156;15.954;2024-02-23T13:08:30;2.53;;;0.88;;
37231;SDS011;23125;48.156;15.954;2024-02-23T13:10:56;2.72;;;0.90;;
37231;SDS011;23125;48.156;15.954;2024-02-23T13:13:23;1.60;;;0.70;;
37231;SDS011;23125;48.156;15.954;2024-02-23T13:15:50;2.90;;;0.93;;
37231;SDS011;23125;48.156;15.954;2024-02-23T13:18:17;2.53;;;0.90;;
37231;SDS011;23125;48.156;15.954;2024-02-23T13:20:44;1.30;;;0.60;;
37231;SDS011;23125;48.156;15.954;2024-02-23T13:23:11;1.48;;;0.55;;
37231;SDS011;23125;48.156;15.954;2024-02-23T13:25:40;1.77;;;0.75;;
37231;SDS011;23125;48.156;15.954;2024-02-23T13:28:07;1.50;;;0.73;;
37231;SDS011;23125;48.156;15.954;2024-02-23T13:30:34;2.25;;;0.73;;
37231;SDS011;23125;48.156;15.954;2024-02-23T13:33:02;0.82;;;0.60;;
37231;SDS011;23125;48.156;15.954;2024-02-23T13:35:28;2.70;;;0.73;;
37231;SDS011;23125;48.156;15.954;2024-02-23T13:37:55;1.30;;;0.73;;
37231;SDS011;23125;48.156;15.954;2024-02-23T13:40:22;2.45;;;0.95;;
37231;SDS011;23125;48.156;15.954;2024-02-23T13:42:49;1.92;;;0.98;;
37231;SDS011;23125;48.156;15.954;2024-02-23T13:45:15;2.53;;;1.20;;
37231;SDS011;23125;48.156;15.954;2024-02-23T13:47:43;2.35;;;1.48;;
37231;SDS011;23125;48.156;15.954;2024-02-23T13:50:21;3.58;;;1.95;;
37231;SDS011;23125;48.156;15.954;2024-02-23T13:52:47;4.40;;;2.58;;
37231;SDS011;23125;48.156;15.954;2024-02-23T13:55:13;14.57;;;7.18;;
37231;SDS011;23125;48.156;15.954;2024-02-23T13:57:39;8.23;;;4.03;;
37231;SDS011;23125;48.156;15.954;2024-02-23T14:00:05;5.20;;;2.88;;
37231;SDS011;23125;48.156;15.954;2024-02-23T14:02:37;2.40;;;1.80;;
37231;SDS011;23125;48.156;15.954;2024-02-23T14:05:06;3.05;;;1.60;;
37231;SDS011;23125;48.156;15.954;2024-02-23T14:07:33;2.83;;;1.83;;
37231;SDS011;23125;48.156;15.954;2024-02-23T14:09:59;3.30;;;2.00;;
37231;SDS011;23125;48.156;15.954;2024-02-23T14:12:27;5.50;;;3.90;;
37231;SDS011;23125;48.156;15.954;2024-02-23T14:14:54;2.78;;;1.70;;
37231;SDS011;23125;48.156;15.954;2024-02-23T14:17:20;2.97;;;1.50;;
37231;SDS011;23125;48.156;15.954;2024-02-23T14:19:46;3.38;;;1.58;;
37231;SDS011;23125;48.156;15.954;2024-02-23T14:22:12;3.03;;;1.40;;
37231;SDS011;23125;48.156;15.954;2024-02-23T14:24:38;2.72;;;1.58;;
37231;SDS011;23125;48.156;15.954;2024-02-23T14:27:05;5.88;;;1.60;;
37231;SDS011;23125;48.156;15.954;2024-02-23T14:29:31;1.85;;;1.20;;
37231;SDS011;23125;48.156;15.954;2024-02-23T14:31:58;1.75;;;1.10;;
37231;SDS011;23125;48.156;15.954;2024-02-23T14:34:24;1.90;;;1.45;;
37231;SDS011;23125;48.156;15.954;2024-02-23T14:36:50;2.00;;;1.23;;
37231;SDS011;23125;48.156;15.954;2024-02-23T14:39:16;1.85;;;1.30;;